100LL.CA
Aviation Fuel Pricing for Canadians
Please upgrade your browser - Tested with IE9, FireFox, Chrome, Safari

Fuel Airports Other Help
Prices Economy Info List METAR/TAF Kneeboard Help

Reference Airport: MONTRÉAL/ST-HUBERT, QC
N 45 31 05  W 073 25 01
Provinces to show:

CYHU MONTRÉAL/ST-HUBERT, QC
WEATHER
METARCYHU 221400Z AUTO 01005KT 9SM FEW130 20/16 A3006 RMK SLP181 DENSITY ALT 500FT
TAFTAF CYHU 221140Z 2212/2312 36005KT P6SM FEW050 BKN140 TEMPO 2212/2218 P6SM -SHRA BECMG 2214/2216 25005KT FM221800 24005KT P6SM SCT020 BKN180 BECMG 2222/2224 17005KT FM230300 14005KT P6SM -RA SCT020 OVC040 TEMPO 2303/2312 3SM RA BR BKN020 OVC040 RMK FCST BASED ON AUTO OBS. NXT FCST BY 221800Z
OTHER SITES

FlightAware

FltPlan

Google Maps

SkyVector
FUEL
FBO 100LL
member
100LL
public
JETA MOGAS
PASCAN (2018-03-20)2.1401.590
Max Aviation (2018-03-14)1.8301.390
Canada Flight Supplement - CYHU
(opens in new tab/window)


Please Send Updates!

Desktop Version ]  [ Mobile Version ]  [ Disclaimer ]